createdAt,value
2023-06-04T00:00:43.414Z,6.50
2023-06-04T00:05:44.929Z,7.05
2023-06-04T00:10:46.494Z,9.20
2023-06-04T00:15:48.211Z,6.35
2023-06-04T00:20:49.760Z,7.35
2023-06-04T00:25:51.513Z,9.30
2023-06-04T00:30:53.113Z,10.15
2023-06-04T00:35:54.656Z,9.40
2023-06-04T00:40:56.211Z,9.20
2023-06-04T00:45:58.020Z,6.25
2023-06-04T00:50:59.904Z,6.57
2023-06-04T00:56:02.039Z,7.53
2023-06-04T01:01:07.371Z,9.10
2023-06-04T01:06:24.069Z,7.65
2023-06-04T01:11:36.586Z,6.28
2023-06-04T01:16:46.074Z,12.05
2023-06-04T01:21:52.200Z,6.15
2023-06-04T01:26:57.091Z,10.93
2023-06-04T01:31:59.712Z,10.73
2023-06-04T01:37:01.237Z,9.13
2023-06-04T01:42:02.829Z,10.73
2023-06-04T01:47:04.444Z,10.82
2023-06-04T01:52:06.834Z,8.93
2023-06-04T01:57:09.065Z,7.40
2023-06-04T02:02:10.707Z,11.40
2023-06-04T02:07:18.712Z,8.38
2023-06-04T02:12:20.335Z,12.63
2023-06-04T02:17:22.837Z,10.73
2023-06-04T02:22:26.217Z,11.23
2023-06-04T02:27:27.729Z,12.70
2023-06-04T02:32:29.994Z,12.18
2023-06-04T02:37:31.631Z,11.07
2023-06-04T02:42:33.201Z,12.07
2023-06-04T02:47:34.758Z,15.02
2023-06-04T02:52:38.123Z,16.73
2023-06-04T02:57:43.695Z,11.10
2023-06-04T03:02:47.584Z,8.98
2023-06-04T03:07:49.453Z,17.33
2023-06-04T03:12:50.956Z,16.02
2023-06-04T03:17:52.647Z,13.63
2023-06-04T03:22:54.360Z,19.33
2023-06-04T03:27:56.044Z,12.90
2023-06-04T03:32:57.679Z,13.25
2023-06-04T03:37:59.387Z,12.85
2023-06-04T03:43:01.424Z,15.02
2023-06-04T03:48:03.412Z,8.05
2023-06-04T03:53:06.176Z,13.10
2023-06-04T03:58:10.613Z,17.17
2023-06-04T04:03:12.287Z,17.13
2023-06-04T04:08:17.551Z,18.08
2023-06-04T04:13:19.240Z,16.23
2023-06-04T04:18:21.589Z,15.32
2023-06-04T04:23:24.526Z,14.60
2023-06-04T04:28:29.740Z,12.85
2023-06-04T04:33:37.891Z,17.75
2023-06-04T04:38:39.678Z,12.10
2023-06-04T04:43:41.400Z,15.25
2023-06-04T04:48:43.516Z,13.05
2023-06-04T04:53:45.084Z,13.07
2023-06-04T04:58:46.666Z,14.38
2023-06-04T05:03:49.060Z,17.73
2023-06-04T05:08:50.654Z,11.60
2023-06-04T05:13:52.234Z,13.85
2023-06-04T05:18:53.764Z,12.50
2023-06-04T05:23:56.465Z,16.65
2023-06-04T05:28:59.515Z,12.50
2023-06-04T05:34:08.494Z,17.50
2023-06-04T05:39:12.885Z,10.25
2023-06-04T05:44:14.403Z,16.27
2023-06-04T05:49:16.038Z,15.48
2023-06-04T05:54:17.591Z,15.02
2023-06-04T05:59:19.235Z,15.88
2023-06-04T06:04:21.407Z,16.95
2023-06-04T06:09:23.098Z,13.35
2023-06-04T06:14:24.671Z,14.95
2023-06-04T06:19:27.496Z,15.00
2023-06-04T06:24:29.014Z,11.52
2023-06-04T06:29:34.465Z,12.45
2023-06-04T06:34:36.095Z,11.43
2023-06-04T06:39:37.649Z,11.68
2023-06-04T06:44:39.183Z,10.32
2023-06-04T06:49:41.680Z,8.77
2023-06-04T06:54:43.238Z,12.50
2023-06-04T06:59:44.823Z,10.50
2023-06-04T07:04:46.452Z,13.25
2023-06-04T07:09:47.976Z,8.60
2023-06-04T07:14:49.571Z,14.07
2023-06-04T07:19:51.171Z,7.07
2023-06-04T07:24:53.171Z,8.93
2023-06-04T07:29:54.734Z,8.35
2023-06-04T07:34:56.325Z,6.40
2023-06-04T07:39:57.950Z,7.22
2023-06-04T07:44:59.611Z,10.70
2023-06-04T07:50:03.604Z,8.32
2023-06-04T07:55:06.230Z,6.18
2023-06-04T08:00:09.266Z,9.93
2023-06-04T08:05:11.155Z,6.80
2023-06-04T08:10:12.841Z,7.57
2023-06-04T08:15:14.490Z,10.45
2023-06-04T08:20:16.098Z,13.00
2023-06-04T08:25:18.284Z,9.70
2023-06-04T08:30:19.898Z,9.13
2023-06-04T08:35:22.101Z,10.98
2023-06-04T08:40:23.752Z,9.25
2023-06-04T08:45:26.605Z,10.63
2023-06-04T08:50:28.196Z,12.43
2023-06-04T08:55:29.857Z,9.57
2023-06-04T09:00:31.440Z,8.43
2023-06-04T09:05:34.402Z,13.77
2023-06-04T09:10:39.035Z,8.55
2023-06-04T09:15:40.756Z,10.13
2023-06-04T09:20:42.353Z,10.35
2023-06-04T09:25:46.975Z,10.20
2023-06-04T09:30:53.477Z,9.20
2023-06-04T09:35:57.311Z,7.72
2023-06-04T09:40:58.859Z,7.03
2023-06-04T09:46:11.462Z,10.32
2023-06-04T09:51:16.221Z,11.77
2023-06-04T09:56:17.785Z,9.05
2023-06-04T10:01:20.235Z,9.80
2023-06-04T10:06:22.287Z,9.43
2023-06-04T10:11:32.097Z,6.78
2023-06-04T10:16:34.802Z,8.88
2023-06-04T10:21:37.257Z,6.38
2023-06-04T10:26:40.650Z,8.07
2023-06-04T10:31:42.590Z,8.05
2023-06-04T10:36:46.155Z,7.90
2023-06-04T10:41:58.865Z,9.13
2023-06-04T10:47:00.736Z,8.52
2023-06-04T10:52:11.333Z,7.00
2023-06-04T10:57:16.899Z,5.35
2023-06-04T11:02:18.476Z,8.37
2023-06-04T11:07:20.914Z,6.00
2023-06-04T11:12:22.637Z,7.90
2023-06-04T11:17:24.583Z,7.97
2023-06-04T11:22:26.171Z,7.70
2023-06-04T11:27:36.463Z,6.35
2023-06-04T11:32:39.029Z,6.63
2023-06-04T11:37:41.586Z,9.45
2023-06-04T11:42:45.978Z,5.95
2023-06-04T11:47:56.682Z,6.15
2023-06-04T11:52:59.236Z,6.40
2023-06-04T11:58:01.044Z,8.10
2023-06-04T12:03:02.731Z,8.45
2023-06-04T12:08:10.421Z,8.23
2023-06-04T12:13:12.457Z,9.13
2023-06-04T12:18:24.856Z,8.55
2023-06-04T12:23:28.093Z,3.80
2023-06-04T12:28:29.789Z,7.30
2023-06-04T12:33:31.311Z,5.03
2023-06-04T12:38:32.924Z,7.13
2023-06-04T12:43:35.537Z,5.10
2023-06-04T12:48:37.120Z,7.05
2023-06-04T12:53:42.920Z,4.35
2023-06-04T12:58:44.520Z,6.25
2023-06-04T13:03:46.338Z,6.20
2023-06-04T13:08:48.025Z,3.78
2023-06-04T13:13:49.720Z,4.97
2023-06-04T13:18:51.273Z,9.23
2023-06-04T13:23:52.873Z,6.43
2023-06-04T13:28:54.400Z,5.38
2023-06-04T13:33:55.992Z,12.25
2023-06-04T13:38:57.657Z,9.25
2023-06-04T13:43:59.344Z,7.65
2023-06-04T13:49:00.897Z,5.60
2023-06-04T13:54:02.435Z,7.80
2023-06-04T13:59:03.953Z,5.10
2023-06-04T14:04:07.787Z,10.32
2023-06-04T14:09:10.544Z,3.88
2023-06-04T14:14:12.232Z,7.00
2023-06-04T14:19:14.190Z,8.50
2023-06-04T14:24:15.868Z,5.68
2023-06-04T14:29:17.512Z,7.80
2023-06-04T14:34:19.057Z,7.13
2023-06-04T14:39:22.983Z,5.75
2023-06-04T14:44:24.647Z,2.70
2023-06-04T14:49:26.242Z,6.32
2023-06-04T14:54:27.842Z,4.80
2023-06-04T14:59:29.679Z,9.25
2023-06-04T15:04:31.278Z,9.02
2023-06-04T15:09:32.840Z,6.95
2023-06-04T15:14:34.410Z,7.97
2023-06-04T15:19:36.009Z,11.23
2023-06-04T15:24:37.505Z,6.97
2023-06-04T15:29:39.047Z,9.73
2023-06-04T15:34:40.623Z,6.30
2023-06-04T15:39:42.235Z,6.28
2023-06-04T15:44:43.798Z,7.93
2023-06-04T15:49:45.640Z,5.97
2023-06-04T15:54:47.555Z,7.93
2023-06-04T15:59:49.226Z,10.30
2023-06-04T16:04:50.849Z,7.80
2023-06-04T16:09:52.530Z,4.93
2023-06-04T16:14:54.129Z,5.68
2023-06-04T16:19:55.649Z,5.88
2023-06-04T16:24:57.206Z,6.32
2023-06-04T16:29:58.819Z,7.43
2023-06-04T16:35:03.043Z,6.80
2023-06-04T16:40:05.834Z,7.05
2023-06-04T16:45:08.042Z,7.00
2023-06-04T16:50:10.723Z,7.60
2023-06-04T16:55:15.040Z,10.02
2023-06-04T17:00:26.331Z,4.97
2023-06-04T17:05:29.810Z,9.80
2023-06-04T17:10:33.402Z,7.85
2023-06-04T17:15:35.018Z,8.00
2023-06-04T17:20:36.882Z,8.05
2023-06-04T17:25:38.422Z,6.07
2023-06-04T17:30:40.000Z,8.18
2023-06-04T17:35:41.794Z,8.70
2023-06-04T17:40:43.450Z,6.07
2023-06-04T17:45:45.198Z,6.65
2023-06-04T17:50:46.779Z,6.47
2023-06-04T17:55:48.403Z,6.05
2023-06-04T18:00:50.091Z,11.00
2023-06-04T18:05:52.002Z,5.22
2023-06-04T18:10:54.111Z,9.18
2023-06-04T18:15:56.354Z,7.78
2023-06-04T18:20:57.996Z,8.73
2023-06-04T18:26:00.398Z,8.10
2023-06-04T18:31:02.014Z,6.72
2023-06-04T18:36:03.624Z,7.60
2023-06-04T18:41:05.287Z,4.80
2023-06-04T18:46:07.062Z,4.68
2023-06-04T18:51:08.821Z,9.80
2023-06-04T18:56:10.458Z,7.75
2023-06-04T19:01:12.079Z,7.03
2023-06-04T19:06:13.717Z,8.25
2023-06-04T19:11:15.477Z,6.88
2023-06-04T19:16:17.041Z,6.25
2023-06-04T19:21:18.665Z,7.22
2023-06-04T19:26:21.756Z,6.65
2023-06-04T19:31:28.752Z,9.13
2023-06-04T19:36:30.695Z,7.57
2023-06-04T19:41:32.340Z,6.57
2023-06-04T19:46:34.027Z,5.93
2023-06-04T19:51:36.147Z,8.85
2023-06-04T19:56:38.778Z,4.35
2023-06-04T20:01:40.401Z,6.05
2023-06-04T20:06:43.231Z,6.18
2023-06-04T20:11:44.847Z,4.05
2023-06-04T20:16:46.655Z,4.38
2023-06-04T20:21:48.296Z,5.70
2023-06-04T20:26:49.921Z,5.80
2023-06-04T20:31:51.516Z,4.22
2023-06-04T20:36:56.399Z,5.20
2023-06-04T20:41:58.714Z,7.20
2023-06-04T20:47:00.355Z,7.35
2023-06-04T20:52:01.968Z,6.90
2023-06-04T20:57:03.619Z,5.65
2023-06-04T21:02:05.644Z,4.53
2023-06-04T21:07:07.699Z,5.95
2023-06-04T21:12:09.261Z,7.60
2023-06-04T21:17:11.003Z,7.43
2023-06-04T21:22:12.592Z,4.47
2023-06-04T21:27:14.185Z,7.82
2023-06-04T21:32:15.746Z,9.70
2023-06-04T21:37:17.297Z,5.97
2023-06-04T21:42:19.094Z,7.65
2023-06-04T21:47:20.709Z,9.15
2023-06-04T21:52:25.847Z,9.13
2023-06-04T21:57:27.723Z,11.70
2023-06-04T22:02:29.308Z,8.85
2023-06-04T22:07:30.945Z,7.20
2023-06-04T22:12:32.578Z,7.70
2023-06-04T22:17:34.143Z,7.07
2023-06-04T22:22:36.193Z,8.75
2023-06-04T22:27:37.818Z,8.98
2023-06-04T22:32:39.504Z,5.88
2023-06-04T22:37:41.061Z,6.93
2023-06-04T22:42:42.686Z,9.20
2023-06-04T22:47:44.308Z,9.68
2023-06-04T22:52:45.897Z,8.50
2023-06-04T22:57:47.574Z,8.57
2023-06-04T23:02:49.274Z,8.30
2023-06-04T23:07:51.128Z,9.60
2023-06-04T23:12:52.720Z,9.32
2023-06-04T23:17:54.372Z,6.57
2023-06-04T23:22:56.193Z,7.63
2023-06-04T23:27:57.778Z,10.02
2023-06-04T23:33:00.009Z,9.43
2023-06-04T23:38:01.903Z,7.30
2023-06-04T23:43:03.448Z,6.20
2023-06-04T23:48:05.094Z,6.45
2023-06-04T23:53:06.678Z,5.70
2023-06-04T23:58:08.234Z,6.63
